createdAt,value
2019-03-30T00:01:21.148Z,1.50
2019-03-30T00:03:52.086Z,1.50
2019-03-30T00:06:22.979Z,1.50
2019-03-30T00:08:53.815Z,1.50
2019-03-30T00:11:24.710Z,1.50
2019-03-30T00:13:55.547Z,1.50
2019-03-30T00:16:26.436Z,1.40
2019-03-30T00:18:57.355Z,1.40
2019-03-30T00:21:28.243Z,1.30
2019-03-30T00:23:59.158Z,1.40
2019-03-30T00:26:29.974Z,1.30
2019-03-30T00:29:00.887Z,1.30
2019-03-30T00:31:31.795Z,1.30
2019-03-30T00:34:02.611Z,1.30
2019-03-30T00:36:33.547Z,1.20
2019-03-30T00:39:05.312Z,1.20
2019-03-30T00:41:36.202Z,1.10
2019-03-30T00:44:07.047Z,1.00
2019-03-30T00:46:37.987Z,1.00
2019-03-30T00:49:08.868Z,1.00
2019-03-30T00:51:39.759Z,1.00
2019-03-30T00:54:10.667Z,1.10
2019-03-30T00:56:41.503Z,1.10
2019-03-30T00:59:12.329Z,1.10
2019-03-30T01:02:00.984Z,1.10
2019-03-30T01:04:43.212Z,1.10
2019-03-30T01:07:25.283Z,1.10
2019-03-30T01:10:07.003Z,1.10
2019-03-30T01:12:49.248Z,1.10
2019-03-30T01:15:31.196Z,1.10
2019-03-30T01:18:13.243Z,1.10
2019-03-30T01:20:55.152Z,1.00
2019-03-30T01:23:37.646Z,0.90
2019-03-30T01:26:22.742Z,0.80
2019-03-30T01:28:53.657Z,0.80
2019-03-30T01:31:43.342Z,0.70
2019-03-30T01:34:26.462Z,0.70
2019-03-30T01:37:08.895Z,0.70
2019-03-30T01:39:49.580Z,0.70
2019-03-30T01:42:39.278Z,0.70
2019-03-30T01:45:22.700Z,0.70
2019-03-30T01:48:04.930Z,0.70
2019-03-30T01:50:46.582Z,0.60
2019-03-30T01:53:28.699Z,0.60
2019-03-30T01:56:10.479Z,0.50
2019-03-30T01:58:52.430Z,0.50
2019-03-30T02:01:34.439Z,0.50
2019-03-30T02:04:16.264Z,0.40
2019-03-30T02:06:58.529Z,0.40
2019-03-30T02:09:40.387Z,0.30
2019-03-30T02:12:22.419Z,0.30
2019-03-30T02:15:04.855Z,0.30
2019-03-30T02:17:47.030Z,0.30
2019-03-30T02:20:30.886Z,0.30
2019-03-30T02:23:12.883Z,0.30
2019-03-30T02:25:54.960Z,0.30
2019-03-30T02:28:36.892Z,0.30
2019-03-30T02:31:19.300Z,0.30
2019-03-30T02:34:01.411Z,0.20
2019-03-30T02:36:43.832Z,0.20
2019-03-30T02:39:25.828Z,0.20
2019-03-30T02:42:07.967Z,0.10
2019-03-30T02:44:49.804Z,0.00
2019-03-30T02:47:32.052Z,0.00
2019-03-30T02:50:14.136Z,0.10
2019-03-30T02:52:56.405Z,0.10
2019-03-30T02:55:38.347Z,0.10
2019-03-30T02:58:20.635Z,0.10
2019-03-30T03:01:02.701Z,0.00
2019-03-30T03:03:44.557Z,0.10
2019-03-30T03:06:26.763Z,0.10
2019-03-30T03:09:10.182Z,0.00
2019-03-30T03:11:52.327Z,0.00
2019-03-30T03:14:34.571Z,0.00
2019-03-30T03:17:16.872Z,0.00
2019-03-30T03:19:58.584Z,0.00
2019-03-30T03:22:40.307Z,0.00
2019-03-30T03:25:21.980Z,0.00
2019-03-30T03:28:03.749Z,-0.10
2019-03-30T03:30:45.680Z,-0.10
2019-03-30T03:33:28.228Z,-0.10
2019-03-30T03:36:10.340Z,-0.20
2019-03-30T03:38:52.120Z,-0.20
2019-03-30T03:41:33.913Z,-0.20
2019-03-30T03:44:16.048Z,-0.20
2019-03-30T03:46:57.780Z,-0.30
2019-03-30T03:49:39.449Z,-0.30
2019-03-30T03:52:21.186Z,-0.30
2019-03-30T03:55:02.000Z,-0.30
2019-03-30T03:57:51.689Z,-0.30
2019-03-30T04:00:35.556Z,-0.30
2019-03-30T04:03:17.666Z,-0.30
2019-03-30T04:05:59.944Z,-0.30
2019-03-30T04:08:41.973Z,-0.30
2019-03-30T04:11:23.823Z,-0.30
2019-03-30T04:14:05.718Z,-0.30
2019-03-30T04:16:47.835Z,-0.30
2019-03-30T04:19:29.677Z,-0.30
2019-03-30T04:22:11.644Z,-0.30
2019-03-30T04:24:53.714Z,-0.40
2019-03-30T04:27:35.843Z,-0.40
2019-03-30T04:30:18.036Z,-0.40
2019-03-30T04:32:59.979Z,-0.40
2019-03-30T04:35:41.958Z,-0.40
2019-03-30T04:38:24.419Z,-0.40
2019-03-30T04:41:06.145Z,-0.40
2019-03-30T04:43:48.100Z,-0.50
2019-03-30T04:46:29.863Z,-0.50
2019-03-30T04:49:12.456Z,-0.40
2019-03-30T04:51:57.914Z,-0.40
2019-03-30T04:54:38.127Z,-0.50
2019-03-30T04:57:19.892Z,-0.40
2019-03-30T05:00:02.040Z,-0.40
2019-03-30T05:02:43.933Z,-0.40
2019-03-30T05:05:26.211Z,-0.30
2019-03-30T05:08:08.308Z,-0.20
2019-03-30T05:10:50.210Z,0.00
2019-03-30T05:13:32.275Z,0.20
2019-03-30T05:16:14.610Z,0.60
2019-03-30T05:18:56.655Z,0.90
2019-03-30T05:21:38.836Z,1.40
2019-03-30T05:24:20.896Z,1.70
2019-03-30T05:27:03.043Z,1.90
2019-03-30T05:29:45.467Z,2.20
2019-03-30T05:32:28.027Z,2.40
2019-03-30T05:35:09.626Z,2.70
2019-03-30T05:37:51.355Z,3.10
2019-03-30T05:40:33.080Z,3.30
2019-03-30T05:43:15.348Z,3.70
2019-03-30T05:45:57.512Z,4.00
2019-03-30T05:48:40.283Z,4.20
2019-03-30T05:51:22.607Z,4.60
2019-03-30T05:54:04.736Z,5.00
2019-03-30T05:56:47.351Z,5.40
2019-03-30T05:59:29.155Z,6.00
2019-03-30T06:02:11.067Z,6.20
2019-03-30T06:04:52.934Z,6.60
2019-03-30T06:07:35.300Z,7.10
2019-03-30T06:10:17.131Z,7.40
2019-03-30T06:12:59.400Z,7.70
2019-03-30T06:15:41.352Z,8.10
2019-03-30T06:18:23.308Z,8.30
2019-03-30T06:21:05.078Z,8.50
2019-03-30T06:23:48.611Z,8.70
2019-03-30T06:26:30.967Z,8.90
2019-03-30T06:29:13.423Z,9.10
2019-03-30T06:31:55.830Z,9.70
2019-03-30T06:34:38.415Z,10.10
2019-03-30T06:37:20.119Z,10.40
2019-03-30T06:40:02.530Z,10.60
2019-03-30T06:42:44.563Z,10.20
2019-03-30T06:45:26.667Z,10.40
2019-03-30T06:48:08.471Z,10.60
2019-03-30T06:50:50.643Z,10.50
2019-03-30T06:53:32.533Z,10.80
2019-03-30T06:56:14.799Z,11.20
2019-03-30T06:58:56.847Z,11.40
2019-03-30T07:01:38.911Z,11.00
2019-03-30T07:04:21.188Z,11.10
2019-03-30T07:07:02.979Z,10.90
2019-03-30T07:09:44.959Z,10.70
2019-03-30T07:12:26.758Z,10.90
2019-03-30T07:15:09.275Z,10.90
2019-03-30T07:17:51.583Z,10.90
2019-03-30T07:20:33.555Z,11.00
2019-03-30T07:23:15.364Z,11.20
2019-03-30T07:25:57.711Z,11.10
2019-03-30T07:28:39.741Z,11.60
2019-03-30T07:31:21.806Z,11.90
2019-03-30T07:34:03.817Z,12.30
2019-03-30T07:36:45.843Z,12.20
2019-03-30T07:39:28.062Z,12.00
2019-03-30T07:42:10.635Z,12.30
2019-03-30T07:44:52.647Z,12.60
2019-03-30T07:47:34.730Z,12.80
2019-03-30T07:50:17.351Z,13.00
2019-03-30T07:52:59.315Z,12.90
2019-03-30T07:55:41.119Z,13.10
2019-03-30T07:58:23.063Z,13.30
2019-03-30T08:01:04.707Z,13.60
2019-03-30T08:03:46.967Z,14.10
2019-03-30T08:06:29.115Z,14.10
2019-03-30T08:09:11.091Z,14.20
2019-03-30T08:11:52.879Z,14.40
2019-03-30T08:14:34.883Z,14.90
2019-03-30T08:17:17.026Z,14.60
2019-03-30T08:19:59.102Z,14.90
2019-03-30T08:22:41.403Z,15.10
2019-03-30T08:25:23.243Z,15.00
2019-03-30T08:28:04.919Z,15.10
2019-03-30T08:30:46.579Z,15.40
2019-03-30T08:33:29.123Z,15.70
2019-03-30T08:36:11.001Z,15.70
2019-03-30T08:38:53.165Z,16.10
2019-03-30T08:41:35.243Z,16.20
2019-03-30T08:44:17.915Z,16.10
2019-03-30T08:46:59.863Z,16.10
2019-03-30T08:49:41.691Z,16.10
2019-03-30T08:52:23.692Z,16.10
2019-03-30T08:55:05.469Z,16.40
2019-03-30T08:57:47.819Z,16.50
2019-03-30T09:00:30.127Z,16.30
2019-03-30T09:03:12.031Z,16.20
2019-03-30T09:05:53.929Z,16.20
2019-03-30T09:08:35.994Z,16.40
2019-03-30T09:11:17.724Z,16.50
2019-03-30T09:14:00.131Z,16.50
2019-03-30T09:16:41.891Z,16.40
2019-03-30T09:19:23.539Z,16.30
2019-03-30T09:22:05.630Z,16.50
2019-03-30T09:24:47.302Z,16.60
2019-03-30T09:27:29.322Z,16.50
2019-03-30T09:30:11.099Z,16.60
2019-03-30T09:32:52.726Z,16.60
2019-03-30T09:35:34.748Z,16.60
2019-03-30T09:38:16.594Z,16.60
2019-03-30T09:40:58.580Z,16.60
2019-03-30T09:43:40.771Z,16.50
2019-03-30T09:46:21.591Z,16.50
2019-03-30T09:49:11.286Z,16.60
2019-03-30T09:51:54.636Z,16.50
2019-03-30T09:54:36.417Z,16.60
2019-03-30T09:57:18.627Z,16.70
2019-03-30T10:00:00.559Z,16.70
2019-03-30T10:02:42.583Z,16.70
2019-03-30T10:05:25.110Z,16.70
2019-03-30T10:08:07.287Z,16.60
2019-03-30T10:10:48.914Z,16.40
2019-03-30T10:13:30.800Z,16.30
2019-03-30T10:16:12.511Z,16.20
2019-03-30T10:18:54.469Z,16.10
2019-03-30T10:21:36.664Z,16.10
2019-03-30T10:24:17.464Z,16.10
2019-03-30T10:27:07.146Z,16.00
2019-03-30T10:29:49.519Z,16.20
2019-03-30T10:32:31.240Z,16.30
2019-03-30T10:35:13.059Z,16.30
2019-03-30T10:37:54.891Z,16.40
2019-03-30T10:40:36.955Z,16.30
2019-03-30T10:43:19.650Z,16.40
2019-03-30T10:46:01.871Z,16.40
2019-03-30T10:48:44.486Z,16.30
2019-03-30T10:51:26.888Z,16.30
2019-03-30T10:54:08.951Z,16.40
2019-03-30T10:56:50.986Z,16.40
2019-03-30T10:59:32.994Z,16.40
2019-03-30T11:02:15.063Z,16.50
2019-03-30T11:04:57.331Z,16.40
2019-03-30T11:07:39.135Z,16.40
2019-03-30T11:10:21.367Z,16.40
2019-03-30T11:13:03.433Z,16.30
2019-03-30T11:15:45.394Z,16.20
2019-03-30T11:18:27.263Z,16.30
2019-03-30T11:21:09.455Z,16.50
2019-03-30T11:23:51.224Z,16.60
2019-03-30T11:26:33.432Z,16.60
2019-03-30T11:29:15.282Z,16.60
2019-03-30T11:31:57.754Z,16.60
2019-03-30T11:34:39.483Z,16.60
2019-03-30T11:37:21.766Z,16.50
2019-03-30T11:40:03.791Z,16.60
2019-03-30T11:42:45.799Z,16.50
2019-03-30T11:45:28.131Z,16.50
2019-03-30T11:48:10.147Z,16.40
2019-03-30T11:50:52.522Z,16.40
2019-03-30T11:53:34.723Z,16.30
2019-03-30T11:56:16.911Z,16.30
2019-03-30T11:58:58.964Z,16.40
2019-03-30T12:01:40.879Z,16.60
2019-03-30T12:04:23.115Z,16.70
2019-03-30T12:07:03.791Z,16.80
2019-03-30T12:09:53.450Z,16.80
2019-03-30T12:12:37.331Z,16.70
2019-03-30T12:15:27.074Z,16.70
2019-03-30T12:18:11.130Z,16.60
2019-03-30T12:20:53.310Z,16.50
2019-03-30T12:23:35.023Z,16.60
2019-03-30T12:26:17.183Z,16.80
2019-03-30T12:28:59.178Z,16.80
2019-03-30T12:31:41.206Z,16.80
2019-03-30T12:34:23.069Z,16.80
2019-03-30T12:37:05.031Z,16.80
2019-03-30T12:39:47.347Z,16.70
2019-03-30T12:42:29.395Z,16.70
2019-03-30T12:45:11.575Z,16.70
2019-03-30T12:47:55.417Z,16.80
2019-03-30T12:50:37.515Z,16.90
2019-03-30T12:53:19.351Z,16.90
2019-03-30T12:56:01.254Z,16.90
2019-03-30T12:58:43.054Z,16.90
2019-03-30T13:01:24.859Z,16.90
2019-03-30T13:04:05.556Z,16.90
2019-03-30T13:06:47.622Z,16.90
2019-03-30T13:09:29.263Z,16.90
2019-03-30T13:12:11.755Z,16.90
2019-03-30T13:14:53.470Z,16.90
2019-03-30T13:17:35.402Z,16.90
2019-03-30T13:20:17.210Z,17.00
2019-03-30T13:22:58.834Z,17.00
2019-03-30T13:25:41.002Z,17.00
2019-03-30T13:28:22.931Z,16.90
2019-03-30T13:31:04.660Z,16.90
2019-03-30T13:33:47.131Z,17.00
2019-03-30T13:36:48.064Z,17.10
2019-03-30T13:39:30.339Z,17.00
2019-03-30T13:42:12.171Z,17.10
2019-03-30T13:44:54.131Z,17.00
2019-03-30T13:47:34.871Z,17.00
2019-03-30T13:50:24.492Z,17.00
2019-03-30T13:53:07.950Z,17.00
2019-03-30T13:55:50.209Z,17.00
2019-03-30T13:58:32.132Z,17.00
2019-03-30T14:01:14.570Z,17.00
2019-03-30T14:03:56.397Z,17.00
2019-03-30T14:06:38.662Z,17.10
2019-03-30T14:09:22.052Z,17.10
2019-03-30T14:12:03.874Z,17.20
2019-03-30T14:14:46.028Z,17.30
2019-03-30T14:17:27.767Z,17.20
2019-03-30T14:20:09.856Z,17.20
2019-03-30T14:22:51.684Z,17.10
2019-03-30T14:25:33.793Z,17.20
2019-03-30T14:28:17.550Z,17.10
2019-03-30T14:31:00.934Z,17.10
2019-03-30T14:33:42.696Z,17.10
2019-03-30T14:36:24.667Z,17.10
2019-03-30T14:39:07.076Z,17.10
2019-03-30T14:41:47.847Z,17.10
2019-03-30T14:44:37.536Z,17.20
2019-03-30T14:47:21.342Z,17.10
2019-03-30T14:50:03.451Z,17.00
2019-03-30T14:52:45.207Z,17.00
2019-03-30T14:55:27.331Z,17.00
2019-03-30T14:58:09.292Z,17.00
2019-03-30T15:00:51.421Z,17.00
2019-03-30T15:03:33.627Z,16.90
2019-03-30T15:06:14.711Z,16.90
2019-03-30T15:08:56.555Z,16.90
2019-03-30T15:11:38.639Z,16.80
2019-03-30T15:14:20.610Z,16.80
2019-03-30T15:17:02.475Z,16.70
2019-03-30T15:19:44.340Z,16.70
2019-03-30T15:22:26.047Z,16.70
2019-03-30T15:25:07.923Z,16.70
2019-03-30T15:27:49.663Z,16.70
2019-03-30T15:30:31.966Z,16.70
2019-03-30T15:33:13.911Z,16.60
2019-03-30T15:35:56.646Z,16.70
2019-03-30T15:38:39.185Z,16.60
2019-03-30T15:41:20.931Z,16.60
2019-03-30T15:44:03.719Z,16.60
2019-03-30T15:46:45.370Z,16.50
2019-03-30T15:49:27.531Z,16.60
2019-03-30T15:52:14.013Z,16.40
2019-03-30T15:54:53.662Z,16.30
2019-03-30T15:57:35.725Z,16.30
2019-03-30T16:00:17.859Z,16.40
2019-03-30T16:03:00.007Z,16.40
2019-03-30T16:05:42.663Z,16.30
2019-03-30T16:08:24.808Z,16.30
2019-03-30T16:11:07.135Z,16.30
2019-03-30T16:13:49.079Z,16.30
2019-03-30T16:16:31.895Z,16.20
2019-03-30T16:19:13.901Z,16.00
2019-03-30T16:21:56.461Z,15.90
2019-03-30T16:24:38.688Z,15.90
2019-03-30T16:27:28.648Z,15.80
2019-03-30T16:30:05.491Z,15.80
2019-03-30T16:32:47.768Z,15.80
2019-03-30T16:35:29.603Z,15.70
2019-03-30T16:38:11.419Z,15.60
2019-03-30T16:40:53.483Z,15.50
2019-03-30T16:43:35.488Z,15.50
2019-03-30T16:46:17.395Z,15.50
2019-03-30T16:48:59.923Z,15.60
2019-03-30T16:51:41.911Z,15.60
2019-03-30T16:54:23.771Z,15.50
2019-03-30T16:57:05.919Z,15.40
2019-03-30T16:59:47.895Z,15.30
2019-03-30T17:02:29.663Z,15.10
2019-03-30T17:05:11.434Z,14.90
2019-03-30T17:07:53.460Z,14.70
2019-03-30T17:10:35.171Z,14.40
2019-03-30T17:13:16.885Z,14.10
2019-03-30T17:15:58.830Z,13.80
2019-03-30T17:18:40.573Z,13.50
2019-03-30T17:21:22.304Z,13.20
2019-03-30T17:24:04.407Z,12.90
2019-03-30T17:26:46.454Z,12.70
2019-03-30T17:29:28.252Z,12.40
2019-03-30T17:32:10.307Z,12.30
2019-03-30T17:34:52.965Z,12.10
2019-03-30T17:37:34.927Z,11.90
2019-03-30T17:40:16.569Z,11.80
2019-03-30T17:42:58.859Z,11.60
2019-03-30T17:45:40.583Z,11.50
2019-03-30T17:48:23.845Z,11.30
2019-03-30T17:51:06.053Z,11.20
2019-03-30T17:53:48.219Z,11.10
2019-03-30T17:56:30.341Z,11.10
2019-03-30T17:59:12.359Z,11.00
2019-03-30T18:01:54.838Z,10.90
2019-03-30T18:04:39.064Z,10.70
2019-03-30T18:07:21.448Z,10.50
2019-03-30T18:10:04.017Z,10.40
2019-03-30T18:12:46.247Z,10.40
2019-03-30T18:15:28.700Z,10.20
2019-03-30T18:18:11.299Z,10.10
2019-03-30T18:20:55.090Z,9.90
2019-03-30T18:23:35.864Z,9.80
2019-03-30T18:26:17.808Z,9.70
2019-03-30T18:28:59.931Z,9.60
2019-03-30T18:31:41.788Z,9.40
2019-03-30T18:34:23.844Z,9.30
2019-03-30T18:37:06.070Z,9.20
2019-03-30T18:39:47.855Z,9.10
2019-03-30T18:42:30.007Z,9.10
2019-03-30T18:45:11.865Z,8.90
2019-03-30T18:47:54.538Z,8.90
2019-03-30T18:50:35.764Z,8.80
2019-03-30T18:53:26.276Z,8.70
2019-03-30T18:56:08.797Z,8.60
2019-03-30T19:02:00.407Z,8.40
2019-03-30T19:04:44.149Z,8.30
2019-03-30T19:07:27.084Z,8.50
2019-03-30T19:10:10.178Z,8.30
2019-03-30T19:12:52.359Z,8.20
2019-03-30T19:15:34.721Z,8.00
2019-03-30T19:18:20.799Z,7.90
2019-03-30T19:21:03.416Z,7.80
2019-03-30T19:23:45.915Z,7.80
2019-03-30T19:26:28.852Z,7.70
2019-03-30T19:29:10.931Z,7.70
2019-03-30T19:31:53.446Z,7.50
2019-03-30T19:34:36.005Z,7.70
2019-03-30T19:37:18.492Z,7.70
2019-03-30T19:40:01.296Z,7.70
2019-03-30T19:42:43.974Z,7.60
2019-03-30T19:45:26.751Z,7.60
2019-03-30T19:48:09.001Z,7.60
2019-03-30T19:50:51.673Z,7.50
2019-03-30T19:53:34.485Z,7.40
2019-03-30T19:56:17.791Z,7.20
2019-03-30T19:59:10.489Z,7.10
2019-03-30T20:01:45.236Z,7.00
2019-03-30T20:04:28.037Z,6.90
2019-03-30T20:07:11.360Z,6.80
2019-03-30T20:09:53.241Z,6.60
2019-03-30T20:12:35.400Z,6.60
2019-03-30T20:15:17.932Z,6.60
2019-03-30T20:18:00.498Z,6.50
2019-03-30T20:20:42.733Z,6.40
2019-03-30T20:23:24.668Z,6.40
2019-03-30T20:26:06.619Z,6.80
2019-03-30T20:28:48.926Z,6.80
2019-03-30T20:31:31.495Z,6.70
2019-03-30T20:34:13.175Z,6.40
2019-03-30T20:36:55.407Z,6.30
2019-03-30T20:39:37.312Z,6.00
2019-03-30T20:42:19.451Z,5.90
2019-03-30T20:45:02.294Z,5.90
2019-03-30T20:47:44.574Z,5.80
2019-03-30T20:50:26.386Z,5.80
2019-03-30T20:53:08.457Z,5.80
2019-03-30T20:55:50.539Z,5.70
2019-03-30T20:58:32.381Z,5.60
2019-03-30T21:01:14.165Z,5.50
2019-03-30T21:03:56.434Z,5.50
2019-03-30T21:06:38.121Z,5.40
2019-03-30T21:09:20.576Z,5.30
2019-03-30T21:12:02.439Z,5.30
2019-03-30T21:14:44.518Z,5.20
2019-03-30T21:17:26.735Z,5.20
2019-03-30T21:20:09.074Z,5.10
2019-03-30T21:22:51.079Z,5.00
2019-03-30T21:25:33.242Z,4.90
2019-03-30T21:28:14.971Z,4.80
2019-03-30T21:30:57.053Z,4.80
2019-03-30T21:33:38.932Z,4.80
2019-03-30T21:36:21.204Z,4.80
2019-03-30T21:39:04.714Z,4.80
2019-03-30T21:41:46.649Z,4.80
2019-03-30T21:44:28.480Z,4.80
2019-03-30T21:47:10.595Z,4.80
2019-03-30T21:49:52.480Z,4.70
2019-03-30T21:52:34.511Z,4.60
2019-03-30T21:55:17.175Z,4.50
2019-03-30T21:57:58.911Z,4.50
2019-03-30T22:00:40.976Z,4.40
2019-03-30T22:03:22.898Z,4.40
2019-03-30T22:06:04.644Z,4.30
2019-03-30T22:08:46.800Z,4.20
2019-03-30T22:11:17.749Z,4.20
2019-03-30T22:14:01.739Z,4.20
2019-03-30T22:16:43.713Z,4.20
2019-03-30T22:19:25.974Z,4.10
2019-03-30T22:22:07.943Z,4.10
2019-03-30T22:24:49.714Z,4.10
2019-03-30T22:27:31.815Z,4.00
2019-03-30T22:30:24.561Z,4.00
2019-03-30T22:32:57.428Z,3.90
2019-03-30T22:35:40.057Z,3.80
2019-03-30T22:38:22.124Z,3.90
2019-03-30T22:40:53.032Z,3.80
2019-03-30T22:43:44.183Z,3.70
2019-03-30T22:46:27.969Z,3.60
2019-03-30T22:49:09.928Z,3.60
2019-03-30T22:51:51.927Z,3.50
2019-03-30T22:54:34.307Z,3.50
2019-03-30T22:57:16.620Z,3.50
2019-03-30T22:59:59.256Z,3.50
2019-03-30T23:02:41.232Z,3.60
2019-03-30T23:05:22.941Z,3.60
2019-03-30T23:08:04.711Z,3.60
2019-03-30T23:10:47.346Z,3.50
2019-03-30T23:13:29.138Z,3.50
2019-03-30T23:16:11.103Z,3.50
2019-03-30T23:18:53.180Z,3.50
2019-03-30T23:21:35.842Z,3.50
2019-03-30T23:24:17.903Z,3.40
2019-03-30T23:26:59.711Z,3.30
2019-03-30T23:29:41.688Z,3.30
2019-03-30T23:32:23.507Z,3.30
2019-03-30T23:35:05.480Z,3.20
2019-03-30T23:37:47.628Z,3.30
2019-03-30T23:40:29.775Z,3.30
2019-03-30T23:43:11.808Z,3.20
2019-03-30T23:45:53.684Z,3.20
2019-03-30T23:48:35.828Z,3.20
2019-03-30T23:51:18.419Z,3.20
2019-03-30T23:53:49.355Z,3.10
2019-03-30T23:56:40.493Z,3.10
2019-03-30T23:59:23.774Z,3.10
